SFR203 FACT-FAOR
Flight info
| Callsign | SFR203 |
|---|---|
| Flight time | 1h 42m |
| Altitude | 35000 |
| Route | TETAN1A TETAN UZ2 NIBEX NIBEX1D |
| Aircraft | B738/M-SDE2E3FGHIRWXY/LB1 |
Departure
| Time | 2026-05-07 15:51 |
|---|---|
| Airport | Cape Town International Airport (FACT) |
Arrival
| Time | 2026-05-07 17:33 |
|---|---|
| Airport | O.R. Tambo International Airport (FAOR) |
| Time | Latitude | Longitude | Altitude | Speed | Heading |
|---|---|---|---|---|---|
| 2026-05-07 14:46 | -33.97112 | 18.59869 | 156 ft | 0 kts | 256° |
| 2026-05-07 15:41 | -33.97112 | 18.59870 | 156 ft | 1 kts | 256° |
| 2026-05-07 15:41 | -33.97106 | 18.59898 | 156 ft | 4 kts | 256° |
| 2026-05-07 15:41 | -33.97101 | 18.59928 | 156 ft | 4 kts | 271° |
| 2026-05-07 15:42 | -33.97108 | 18.59954 | 156 ft | 4 kts | 324° |
| 2026-05-07 15:42 | -33.97132 | 18.59966 | 156 ft | 4 kts | 346° |
| 2026-05-07 15:42 | -33.97153 | 18.59972 | 156 ft | 4 kts | 346° |
| 2026-05-07 15:42 | -33.97161 | 18.59975 | 156 ft | 1 kts | 346° |
| 2026-05-07 15:46 | -33.97137 | 18.59967 | 156 ft | 11 kts | 347° |
| 2026-05-07 15:46 | -33.97046 | 18.59947 | 156 ft | 14 kts | 343° |
| 2026-05-07 15:46 | -33.96987 | 18.59927 | 156 ft | 13 kts | 345° |
| 2026-05-07 15:47 | -33.96871 | 18.59890 | 156 ft | 13 kts | 345° |
| 2026-05-07 15:47 | -33.96788 | 18.59863 | 156 ft | 12 kts | 345° |
| 2026-05-07 15:47 | -33.96707 | 18.59837 | 156 ft | 12 kts | 345° |
| 2026-05-07 15:47 | -33.96655 | 18.59820 | 156 ft | 12 kts | 346° |
| 2026-05-07 15:48 | -33.96577 | 18.59797 | 156 ft | 12 kts | 346° |
| 2026-05-07 15:48 | -33.96467 | 18.59770 | 156 ft | 17 kts | 350° |
| 2026-05-07 15:48 | -33.96353 | 18.59747 | 156 ft | 16 kts | 350° |
| 2026-05-07 15:48 | -33.96243 | 18.59728 | 155 ft | 16 kts | 7° |
| 2026-05-07 15:49 | -33.96159 | 18.59808 | 153 ft | 16 kts | 46° |
| 2026-05-07 15:49 | -33.96085 | 18.59899 | 153 ft | 15 kts | 45° |
| 2026-05-07 15:49 | -33.96031 | 18.59987 | 153 ft | 12 kts | 88° |
| 2026-05-07 15:49 | -33.96070 | 18.60037 | 153 ft | 0 kts | 165° |
| 2026-05-07 15:50 | -33.96172 | 18.60070 | 153 ft | 43 kts | 165° |
| 2026-05-07 15:50 | -33.96707 | 18.60238 | 160 ft | 112 kts | 165° |
| 2026-05-07 15:51 | -33.97658 | 18.60523 | 225 ft | 161 kts | 171° |
| 2026-05-07 15:51 | -33.98799 | 18.60798 | 883 ft | 171 kts | 169° |
| 2026-05-07 15:51 | -33.99978 | 18.61054 | 1755 ft | 170 kts | 169° |
| 2026-05-07 15:51 | -34.01135 | 18.61254 | 2673 ft | 170 kts | 171° |
| 2026-05-07 15:52 | -34.02392 | 18.61480 | 3029 ft | 197 kts | 168° |
| 2026-05-07 15:52 | -34.03828 | 18.61799 | 3299 ft | 220 kts | 167° |
| 2026-05-07 15:52 | -34.05373 | 18.62148 | 3797 ft | 230 kts | 168° |
| 2026-05-07 15:52 | -34.06934 | 18.62560 | 4434 ft | 231 kts | 158° |
| 2026-05-07 15:53 | -34.08144 | 18.63807 | 5041 ft | 233 kts | 118° |
| 2026-05-07 15:53 | -34.08512 | 18.65694 | 5589 ft | 245 kts | 91° |
| 2026-05-07 15:53 | -34.08166 | 18.67802 | 5995 ft | 266 kts | 70° |
| 2026-05-07 15:53 | -34.07267 | 18.69794 | 6792 ft | 273 kts | 59° |
| 2026-05-07 15:54 | -34.06187 | 18.71712 | 7593 ft | 278 kts | 57° |
| 2026-05-07 15:54 | -34.05057 | 18.73640 | 8408 ft | 283 kts | 57° |
| 2026-05-07 15:54 | -34.03920 | 18.75576 | 9182 ft | 288 kts | 57° |
| 2026-05-07 15:54 | -34.02758 | 18.77571 | 9999 ft | 292 kts | 57° |
| 2026-05-07 15:55 | -34.01582 | 18.79610 | 10619 ft | 303 kts | 57° |
| 2026-05-07 15:55 | -34.00333 | 18.81794 | 10815 ft | 328 kts | 57° |
| 2026-05-07 15:55 | -33.99014 | 18.84111 | 11354 ft | 338 kts | 57° |
| 2026-05-07 15:55 | -33.97690 | 18.86442 | 12040 ft | 343 kts | 57° |
| 2026-05-07 15:56 | -33.96333 | 18.88832 | 12785 ft | 348 kts | 57° |
| 2026-05-07 15:56 | -33.94954 | 18.91265 | 13512 ft | 353 kts | 57° |
| 2026-05-07 15:56 | -33.93559 | 18.93728 | 14198 ft | 358 kts | 57° |
| 2026-05-07 15:56 | -33.92142 | 18.96230 | 14837 ft | 363 kts | 57° |
| 2026-05-07 15:57 | -33.90710 | 18.98757 | 15497 ft | 367 kts | 57° |
| 2026-05-07 15:57 | -33.89278 | 19.01284 | 16128 ft | 371 kts | 57° |
| 2026-05-07 15:57 | -33.87816 | 19.03861 | 16807 ft | 374 kts | 57° |
| 2026-05-07 15:57 | -33.86337 | 19.06467 | 17460 ft | 379 kts | 57° |
| 2026-05-07 15:58 | -33.84842 | 19.09100 | 18114 ft | 383 kts | 56° |
| 2026-05-07 15:58 | -33.83331 | 19.11758 | 18753 ft | 386 kts | 56° |
| 2026-05-07 15:58 | -33.81805 | 19.14441 | 19266 ft | 391 kts | 56° |
| 2026-05-07 15:58 | -33.80274 | 19.17132 | 19778 ft | 396 kts | 56° |
| 2026-05-07 15:59 | -33.78709 | 19.19878 | 20350 ft | 399 kts | 56° |
| 2026-05-07 15:59 | -33.77119 | 19.22667 | 20890 ft | 403 kts | 56° |
| 2026-05-07 15:59 | -33.75522 | 19.25468 | 21412 ft | 408 kts | 56° |
| 2026-05-07 15:59 | -33.73926 | 19.28264 | 21920 ft | 412 kts | 56° |
| 2026-05-07 16:00 | -33.72293 | 19.31123 | 22427 ft | 416 kts | 55° |
| 2026-05-07 16:00 | -33.70651 | 19.33995 | 22931 ft | 420 kts | 55° |
| 2026-05-07 16:00 | -33.68984 | 19.36910 | 23404 ft | 424 kts | 55° |
| 2026-05-07 16:00 | -33.67300 | 19.39851 | 23865 ft | 428 kts | 55° |
| 2026-05-07 16:01 | -33.65586 | 19.42781 | 24287 ft | 431 kts | 53° |
| 2026-05-07 16:01 | -33.63763 | 19.45659 | 24713 ft | 433 kts | 51° |
| 2026-05-07 16:01 | -33.61906 | 19.48481 | 25140 ft | 436 kts | 51° |
| 2026-05-07 16:01 | -33.60000 | 19.51341 | 25549 ft | 439 kts | 50° |
| 2026-05-07 16:02 | -33.58087 | 19.54214 | 25955 ft | 442 kts | 50° |
| 2026-05-07 16:02 | -33.56161 | 19.57123 | 26365 ft | 445 kts | 51° |
| 2026-05-07 16:02 | -33.54259 | 19.60008 | 26745 ft | 448 kts | 51° |
| 2026-05-07 16:02 | -33.52313 | 19.62969 | 26988 ft | 455 kts | 51° |
| 2026-05-07 16:03 | -33.50353 | 19.65955 | 27481 ft | 454 kts | 51° |
| 2026-05-07 16:03 | -33.48397 | 19.68937 | 27955 ft | 454 kts | 51° |
| 2026-05-07 16:03 | -33.46431 | 19.71929 | 28287 ft | 458 kts | 51° |
| 2026-05-07 16:03 | -33.44478 | 19.74899 | 28635 ft | 461 kts | 51° |
| 2026-05-07 16:04 | -33.42480 | 19.77935 | 28993 ft | 464 kts | 51° |
| 2026-05-07 16:04 | -33.40472 | 19.80983 | 29350 ft | 466 kts | 50° |
| 2026-05-07 16:04 | -33.38457 | 19.84040 | 29692 ft | 468 kts | 50° |
| 2026-05-07 16:04 | -33.36459 | 19.87068 | 30052 ft | 470 kts | 50° |
| 2026-05-07 16:05 | -33.34424 | 19.90151 | 30358 ft | 472 kts | 50° |
| 2026-05-07 16:05 | -33.32370 | 19.93260 | 30625 ft | 475 kts | 50° |
| 2026-05-07 16:05 | -33.30314 | 19.96368 | 30867 ft | 477 kts | 50° |
| 2026-05-07 16:05 | -33.28230 | 19.99418 | 31135 ft | 479 kts | 48° |
| 2026-05-07 16:06 | -33.26028 | 20.02428 | 31400 ft | 480 kts | 46° |
| 2026-05-07 16:06 | -33.23781 | 20.05394 | 31640 ft | 482 kts | 46° |
| 2026-05-07 16:06 | -33.21511 | 20.08354 | 31895 ft | 484 kts | 46° |
| 2026-05-07 16:06 | -33.19241 | 20.11313 | 32239 ft | 483 kts | 46° |
| 2026-05-07 16:07 | -33.16974 | 20.14281 | 32609 ft | 482 kts | 46° |
| 2026-05-07 16:07 | -33.14724 | 20.17240 | 32922 ft | 481 kts | 46° |
| 2026-05-07 16:07 | -33.12480 | 20.20203 | 33200 ft | 482 kts | 46° |
| 2026-05-07 16:07 | -33.10231 | 20.23178 | 33532 ft | 481 kts | 46° |
| 2026-05-07 16:08 | -33.08022 | 20.26103 | 33847 ft | 481 kts | 46° |
| 2026-05-07 16:08 | -33.05777 | 20.29073 | 34132 ft | 481 kts | 46° |
| 2026-05-07 16:08 | -33.03533 | 20.32040 | 34359 ft | 482 kts | 46° |
| 2026-05-07 16:08 | -33.01286 | 20.35008 | 34606 ft | 481 kts | 46° |
| 2026-05-07 16:09 | -32.99034 | 20.37979 | 34842 ft | 482 kts | 46° |
| 2026-05-07 16:09 | -32.96784 | 20.40946 | 35036 ft | 483 kts | 46° |
| 2026-05-07 16:09 | -32.94533 | 20.43910 | 35249 ft | 483 kts | 46° |
| 2026-05-07 16:09 | -32.92300 | 20.46847 | 35487 ft | 482 kts | 46° |
| 2026-05-07 16:10 | -32.90049 | 20.49806 | 35722 ft | 482 kts | 46° |
| 2026-05-07 16:10 | -32.87790 | 20.52773 | 35906 ft | 483 kts | 46° |
| 2026-05-07 16:10 | -32.85519 | 20.55755 | 36095 ft | 484 kts | 46° |
| 2026-05-07 16:10 | -32.83257 | 20.58721 | 36307 ft | 484 kts | 46° |
| 2026-05-07 16:11 | -32.81019 | 20.61653 | 36518 ft | 484 kts | 46° |
| 2026-05-07 16:11 | -32.78750 | 20.64624 | 36723 ft | 484 kts | 45° |
| 2026-05-07 16:11 | -32.76482 | 20.67592 | 36920 ft | 484 kts | 45° |
| 2026-05-07 16:11 | -32.74214 | 20.70556 | 37109 ft | 484 kts | 45° |
| 2026-05-07 16:12 | -32.71968 | 20.73490 | 37181 ft | 486 kts | 45° |
| 2026-05-07 16:12 | -32.67403 | 20.79444 | 37185 ft | 486 kts | 45° |
| 2026-05-07 16:13 | -32.62872 | 20.85346 | 37176 ft | 484 kts | 45° |
| 2026-05-07 16:13 | -32.58337 | 20.91243 | 37180 ft | 482 kts | 45° |
| 2026-05-07 16:14 | -32.53812 | 20.97117 | 37181 ft | 481 kts | 45° |
| 2026-05-07 16:14 | -32.49316 | 21.02944 | 37180 ft | 480 kts | 45° |
| 2026-05-07 16:15 | -32.44794 | 21.08795 | 37179 ft | 481 kts | 45° |
| 2026-05-07 16:15 | -32.40291 | 21.14612 | 37184 ft | 482 kts | 45° |
| 2026-05-07 16:16 | -32.35735 | 21.20488 | 37172 ft | 484 kts | 45° |
| 2026-05-07 16:16 | -32.31163 | 21.26377 | 37165 ft | 486 kts | 45° |
| 2026-05-07 16:17 | -32.26598 | 21.32245 | 37169 ft | 487 kts | 45° |
| 2026-05-07 16:17 | -32.21996 | 21.38153 | 37176 ft | 489 kts | 45° |
| 2026-05-07 16:18 | -32.17405 | 21.44037 | 37171 ft | 490 kts | 45° |
| 2026-05-07 16:18 | -32.12771 | 21.49967 | 37172 ft | 490 kts | 45° |
| 2026-05-07 16:19 | -32.08165 | 21.55852 | 37173 ft | 490 kts | 45° |
| 2026-05-07 16:19 | -32.03534 | 21.61759 | 37167 ft | 490 kts | 45° |
| 2026-05-07 16:20 | -31.98900 | 21.67659 | 37168 ft | 489 kts | 45° |
| 2026-05-07 16:20 | -31.94295 | 21.73514 | 37163 ft | 489 kts | 45° |
| 2026-05-07 16:21 | -31.89668 | 21.79388 | 37157 ft | 488 kts | 45° |
| 2026-05-07 16:21 | -31.85080 | 21.85202 | 37170 ft | 487 kts | 45° |
| 2026-05-07 16:22 | -31.80462 | 21.91047 | 37163 ft | 486 kts | 45° |
| 2026-05-07 16:22 | -31.75874 | 21.96843 | 37154 ft | 486 kts | 45° |
| 2026-05-07 16:23 | -31.71257 | 22.02666 | 37169 ft | 486 kts | 45° |
| 2026-05-07 16:23 | -31.66654 | 22.08464 | 37164 ft | 487 kts | 45° |
| 2026-05-07 16:24 | -31.62016 | 22.14295 | 37170 ft | 487 kts | 45° |
| 2026-05-07 16:24 | -31.57380 | 22.20116 | 37161 ft | 488 kts | 45° |
| 2026-05-07 16:25 | -31.52758 | 22.25910 | 37164 ft | 489 kts | 45° |
| 2026-05-07 16:25 | -31.48117 | 22.31719 | 37166 ft | 489 kts | 45° |
| 2026-05-07 16:26 | -31.43450 | 22.37551 | 37163 ft | 490 kts | 45° |
| 2026-05-07 16:26 | -31.38783 | 22.43374 | 37159 ft | 491 kts | 44° |
| 2026-05-07 16:27 | -31.34101 | 22.49207 | 37152 ft | 491 kts | 44° |
| 2026-05-07 16:27 | -31.29438 | 22.55008 | 37158 ft | 491 kts | 44° |
| 2026-05-07 16:28 | -31.24738 | 22.60844 | 37153 ft | 492 kts | 44° |
| 2026-05-07 16:28 | -31.20040 | 22.66671 | 37146 ft | 492 kts | 44° |
| 2026-05-07 16:29 | -31.15366 | 22.72458 | 37143 ft | 492 kts | 44° |
| 2026-05-07 16:29 | -31.10656 | 22.78282 | 37143 ft | 492 kts | 44° |
| 2026-05-07 16:30 | -31.05945 | 22.84100 | 37139 ft | 492 kts | 44° |
| 2026-05-07 16:30 | -31.01249 | 22.89879 | 37140 ft | 493 kts | 44° |
| 2026-05-07 16:31 | -30.96516 | 22.95677 | 37137 ft | 493 kts | 44° |
| 2026-05-07 16:31 | -30.91772 | 23.01479 | 37135 ft | 494 kts | 44° |
| 2026-05-07 16:32 | -30.87056 | 23.07243 | 37135 ft | 494 kts | 44° |
| 2026-05-07 16:32 | -30.82310 | 23.13037 | 37135 ft | 494 kts | 44° |
| 2026-05-07 16:33 | -30.77550 | 23.18839 | 37136 ft | 494 kts | 44° |
| 2026-05-07 16:33 | -30.72819 | 23.24597 | 37135 ft | 494 kts | 44° |
| 2026-05-07 16:34 | -30.68052 | 23.30389 | 37135 ft | 494 kts | 44° |
| 2026-05-07 16:34 | -30.63314 | 23.36138 | 37132 ft | 494 kts | 44° |
| 2026-05-07 16:35 | -30.58536 | 23.41926 | 37128 ft | 494 kts | 44° |
| 2026-05-07 16:35 | -30.53798 | 23.47657 | 37132 ft | 494 kts | 44° |
| 2026-05-07 16:36 | -30.49032 | 23.53413 | 37136 ft | 494 kts | 43° |
| 2026-05-07 16:36 | -30.45061 | 23.58202 | 37134 ft | 494 kts | 43° |
| 2026-05-07 16:37 | -30.40294 | 23.63943 | 37136 ft | 494 kts | 43° |
| 2026-05-07 16:37 | -30.35522 | 23.69682 | 37138 ft | 494 kts | 43° |
| 2026-05-07 16:38 | -30.30773 | 23.75386 | 37134 ft | 494 kts | 43° |
| 2026-05-07 16:38 | -30.25989 | 23.81122 | 37141 ft | 494 kts | 43° |
| 2026-05-07 16:39 | -30.21214 | 23.86838 | 37137 ft | 493 kts | 43° |
| 2026-05-07 16:39 | -30.16462 | 23.92520 | 37143 ft | 493 kts | 43° |
| 2026-05-07 16:40 | -30.11676 | 23.98233 | 37138 ft | 493 kts | 43° |
| 2026-05-07 16:40 | -30.06918 | 24.03904 | 37145 ft | 493 kts | 43° |
| 2026-05-07 16:41 | -30.02151 | 24.09578 | 37142 ft | 494 kts | 43° |
| 2026-05-07 16:41 | -29.97348 | 24.15285 | 37143 ft | 494 kts | 43° |
| 2026-05-07 16:42 | -29.92560 | 24.20967 | 37138 ft | 494 kts | 43° |
| 2026-05-07 16:42 | -29.87790 | 24.26619 | 37141 ft | 494 kts | 43° |
| 2026-05-07 16:43 | -29.82980 | 24.32310 | 37141 ft | 494 kts | 43° |
| 2026-05-07 16:43 | -29.78206 | 24.37950 | 37147 ft | 494 kts | 43° |
| 2026-05-07 16:44 | -29.73400 | 24.43620 | 37144 ft | 494 kts | 42° |
| 2026-05-07 16:44 | -29.68588 | 24.49289 | 37139 ft | 494 kts | 42° |
| 2026-05-07 16:45 | -29.63807 | 24.54913 | 37136 ft | 494 kts | 42° |
| 2026-05-07 16:45 | -29.58983 | 24.60579 | 37143 ft | 494 kts | 42° |
| 2026-05-07 16:46 | -29.54169 | 24.66225 | 37147 ft | 494 kts | 42° |
| 2026-05-07 16:46 | -29.49375 | 24.71840 | 37144 ft | 494 kts | 42° |
| 2026-05-07 16:47 | -29.44545 | 24.77488 | 37140 ft | 494 kts | 41° |
| 2026-05-07 16:47 | -29.39750 | 24.83088 | 37148 ft | 494 kts | 41° |
| 2026-05-07 16:48 | -29.34929 | 24.88710 | 37139 ft | 494 kts | 41° |
| 2026-05-07 16:48 | -29.30110 | 24.94323 | 37141 ft | 493 kts | 41° |
| 2026-05-07 16:49 | -29.25295 | 24.99921 | 37141 ft | 492 kts | 41° |
| 2026-05-07 16:49 | -29.20509 | 25.05480 | 37086 ft | 490 kts | 40° |
| 2026-05-07 16:50 | -29.15726 | 25.11027 | 37133 ft | 488 kts | 40° |
| 2026-05-07 16:50 | -29.10991 | 25.16509 | 37141 ft | 487 kts | 40° |
| 2026-05-07 16:51 | -29.06223 | 25.22021 | 37138 ft | 486 kts | 40° |
| 2026-05-07 16:51 | -29.01468 | 25.27512 | 37137 ft | 485 kts | 40° |
| 2026-05-07 16:52 | -28.96731 | 25.32973 | 37139 ft | 485 kts | 39° |
| 2026-05-07 16:52 | -28.91967 | 25.38459 | 37139 ft | 485 kts | 39° |
| 2026-05-07 16:53 | -28.87205 | 25.43935 | 37146 ft | 485 kts | 39° |
| 2026-05-07 16:53 | -28.82475 | 25.49366 | 37138 ft | 485 kts | 39° |
| 2026-05-07 16:54 | -28.77708 | 25.54833 | 37144 ft | 486 kts | 39° |
| 2026-05-07 16:54 | -28.72925 | 25.60309 | 37142 ft | 487 kts | 39° |
| 2026-05-07 16:55 | -28.68169 | 25.65748 | 37147 ft | 487 kts | 39° |
| 2026-05-07 16:55 | -28.63371 | 25.71228 | 37148 ft | 488 kts | 39° |
| 2026-05-07 16:56 | -28.58563 | 25.76712 | 37146 ft | 489 kts | 39° |
| 2026-05-07 16:56 | -28.51333 | 25.84944 | 37142 ft | 490 kts | 38° |
| 2026-05-07 16:57 | -28.46539 | 25.90394 | 37144 ft | 490 kts | 38° |
| 2026-05-07 16:57 | -28.41707 | 25.95880 | 37146 ft | 490 kts | 38° |
| 2026-05-07 16:58 | -28.36913 | 26.01317 | 37147 ft | 489 kts | 38° |
| 2026-05-07 16:58 | -28.32087 | 26.06776 | 37140 ft | 489 kts | 38° |
| 2026-05-07 16:59 | -28.27255 | 26.12234 | 37137 ft | 488 kts | 38° |
| 2026-05-07 16:59 | -28.22468 | 26.17637 | 37140 ft | 488 kts | 38° |
| 2026-05-07 17:00 | -28.17650 | 26.23069 | 37146 ft | 487 kts | 38° |
| 2026-05-07 17:00 | -28.12827 | 26.28499 | 37149 ft | 487 kts | 38° |
| 2026-05-07 17:01 | -28.08042 | 26.33879 | 37149 ft | 487 kts | 38° |
| 2026-05-07 17:01 | -28.03216 | 26.39300 | 37152 ft | 487 kts | 37° |
| 2026-05-07 17:02 | -27.98431 | 26.44663 | 37148 ft | 487 kts | 37° |
| 2026-05-07 17:02 | -27.93621 | 26.50044 | 37139 ft | 482 kts | 37° |
| 2026-05-07 17:03 | -27.88861 | 26.55364 | 37143 ft | 479 kts | 37° |
| 2026-05-07 17:03 | -27.84156 | 26.60614 | 37146 ft | 473 kts | 37° |
| 2026-05-07 17:04 | -27.81815 | 26.63233 | 37122 ft | 460 kts | 37° |
| 2026-05-07 17:04 | -27.79573 | 26.65738 | 36627 ft | 460 kts | 37° |
| 2026-05-07 17:04 | -27.77296 | 26.68270 | 36139 ft | 459 kts | 37° |
| 2026-05-07 17:04 | -27.75018 | 26.70799 | 35666 ft | 459 kts | 37° |
| 2026-05-07 17:05 | -27.72739 | 26.73328 | 35201 ft | 459 kts | 37° |
| 2026-05-07 17:05 | -27.70461 | 26.75857 | 34744 ft | 459 kts | 37° |
| 2026-05-07 17:05 | -27.68183 | 26.78386 | 34300 ft | 459 kts | 37° |
| 2026-05-07 17:05 | -27.65907 | 26.80913 | 33794 ft | 459 kts | 38° |
| 2026-05-07 17:06 | -27.63630 | 26.83438 | 33267 ft | 458 kts | 38° |
| 2026-05-07 17:06 | -27.61356 | 26.85961 | 32758 ft | 458 kts | 38° |
| 2026-05-07 17:06 | -27.59114 | 26.88445 | 32267 ft | 458 kts | 38° |
| 2026-05-07 17:06 | -27.56841 | 26.90962 | 31770 ft | 457 kts | 38° |
| 2026-05-07 17:07 | -27.54574 | 26.93473 | 31285 ft | 457 kts | 38° |
| 2026-05-07 17:07 | -27.52301 | 26.95987 | 30803 ft | 456 kts | 38° |
| 2026-05-07 17:07 | -27.50036 | 26.98491 | 30339 ft | 456 kts | 39° |
| 2026-05-07 17:07 | -27.47774 | 27.00991 | 29798 ft | 455 kts | 39° |
| 2026-05-07 17:08 | -27.45520 | 27.03480 | 29253 ft | 453 kts | 39° |
| 2026-05-07 17:08 | -27.43274 | 27.05959 | 28715 ft | 451 kts | 39° |
| 2026-05-07 17:08 | -27.41055 | 27.08406 | 28193 ft | 450 kts | 39° |
| 2026-05-07 17:08 | -27.38817 | 27.10874 | 27685 ft | 448 kts | 39° |
| 2026-05-07 17:09 | -27.36616 | 27.13298 | 27174 ft | 446 kts | 39° |
| 2026-05-07 17:09 | -27.34402 | 27.15736 | 26676 ft | 444 kts | 39° |
| 2026-05-07 17:09 | -27.32191 | 27.18169 | 26178 ft | 442 kts | 39° |
| 2026-05-07 17:09 | -27.29992 | 27.20586 | 25706 ft | 440 kts | 39° |
| 2026-05-07 17:10 | -27.27807 | 27.22988 | 25233 ft | 438 kts | 39° |
| 2026-05-07 17:10 | -27.25632 | 27.25378 | 24768 ft | 436 kts | 39° |
| 2026-05-07 17:10 | -27.23465 | 27.27757 | 24311 ft | 434 kts | 39° |
| 2026-05-07 17:10 | -27.21334 | 27.30094 | 23864 ft | 432 kts | 39° |
| 2026-05-07 17:11 | -27.19138 | 27.32393 | 23351 ft | 428 kts | 36° |
| 2026-05-07 17:11 | -27.16885 | 27.34569 | 22824 ft | 425 kts | 34° |
| 2026-05-07 17:11 | -27.14613 | 27.36692 | 22306 ft | 422 kts | 34° |
| 2026-05-07 17:11 | -27.12355 | 27.38787 | 21798 ft | 421 kts | 34° |
| 2026-05-07 17:12 | -27.10099 | 27.40888 | 21295 ft | 419 kts | 34° |
| 2026-05-07 17:12 | -27.07898 | 27.42950 | 20812 ft | 417 kts | 34° |
| 2026-05-07 17:12 | -27.05652 | 27.45064 | 20311 ft | 412 kts | 34° |
| 2026-05-07 17:12 | -27.03512 | 27.47088 | 19825 ft | 403 kts | 35° |
| 2026-05-07 17:13 | -27.01396 | 27.49091 | 19364 ft | 394 kts | 35° |
| 2026-05-07 17:13 | -26.99326 | 27.51051 | 19008 ft | 383 kts | 34° |
| 2026-05-07 17:13 | -26.97309 | 27.52958 | 18652 ft | 373 kts | 34° |
| 2026-05-07 17:13 | -26.95346 | 27.54811 | 18281 ft | 364 kts | 34° |
| 2026-05-07 17:14 | -26.93431 | 27.56617 | 17880 ft | 356 kts | 34° |
| 2026-05-07 17:14 | -26.91568 | 27.58371 | 17501 ft | 351 kts | 34° |
| 2026-05-07 17:14 | -26.89697 | 27.60132 | 17126 ft | 350 kts | 34° |
| 2026-05-07 17:14 | -26.87775 | 27.61934 | 16779 ft | 370 kts | 35° |
| 2026-05-07 17:15 | -26.85769 | 27.63818 | 16411 ft | 379 kts | 36° |
| 2026-05-07 17:15 | -26.83775 | 27.65697 | 16058 ft | 379 kts | 36° |
| 2026-05-07 17:15 | -26.81767 | 27.67582 | 15684 ft | 374 kts | 35° |
| 2026-05-07 17:15 | -26.79729 | 27.69371 | 15323 ft | 370 kts | 33° |
| 2026-05-07 17:16 | -26.77673 | 27.71099 | 14972 ft | 369 kts | 32° |
| 2026-05-07 17:16 | -26.75605 | 27.72818 | 14629 ft | 371 kts | 32° |
| 2026-05-07 17:16 | -26.73521 | 27.74552 | 14292 ft | 374 kts | 33° |
| 2026-05-07 17:16 | -26.71435 | 27.76296 | 13933 ft | 373 kts | 33° |
| 2026-05-07 17:17 | -26.69358 | 27.78041 | 13548 ft | 373 kts | 33° |
| 2026-05-07 17:17 | -26.67291 | 27.79783 | 13266 ft | 367 kts | 34° |
| 2026-05-07 17:17 | -26.65301 | 27.81464 | 13013 ft | 361 kts | 34° |
| 2026-05-07 17:17 | -26.63309 | 27.83146 | 12780 ft | 357 kts | 34° |
| 2026-05-07 17:18 | -26.61332 | 27.84814 | 12555 ft | 354 kts | 34° |
| 2026-05-07 17:18 | -26.59369 | 27.86469 | 12330 ft | 352 kts | 34° |
| 2026-05-07 17:18 | -26.57316 | 27.87925 | 12097 ft | 347 kts | 22° |
| 2026-05-07 17:18 | -26.55128 | 27.89047 | 11878 ft | 344 kts | 20° |
| 2026-05-07 17:19 | -26.52914 | 27.90106 | 11662 ft | 347 kts | 19° |
| 2026-05-07 17:19 | -26.50664 | 27.91165 | 11434 ft | 349 kts | 19° |
| 2026-05-07 17:19 | -26.48456 | 27.92198 | 11226 ft | 347 kts | 19° |
| 2026-05-07 17:19 | -26.46225 | 27.93236 | 11001 ft | 346 kts | 19° |
| 2026-05-07 17:20 | -26.44003 | 27.94266 | 10768 ft | 345 kts | 19° |
| 2026-05-07 17:20 | -26.41794 | 27.95285 | 10557 ft | 339 kts | 19° |
| 2026-05-07 17:20 | -26.39644 | 27.96278 | 10324 ft | 328 kts | 19° |
| 2026-05-07 17:20 | -26.38261 | 27.96917 | 10180 ft | 321 kts | 19° |
| 2026-05-07 17:21 | -26.35645 | 27.98122 | 9871 ft | 313 kts | 19° |
| 2026-05-07 17:21 | -26.33645 | 27.99038 | 9623 ft | 310 kts | 19° |
| 2026-05-07 17:21 | -26.31628 | 27.99957 | 9412 ft | 314 kts | 19° |
| 2026-05-07 17:21 | -26.29595 | 28.00878 | 9301 ft | 315 kts | 19° |
| 2026-05-07 17:22 | -26.28244 | 28.01488 | 9237 ft | 316 kts | 19° |
| 2026-05-07 17:22 | -26.25874 | 28.02556 | 9114 ft | 316 kts | 19° |
| 2026-05-07 17:22 | -26.23836 | 28.03471 | 9008 ft | 312 kts | 19° |
| 2026-05-07 17:23 | -26.21850 | 28.04365 | 8877 ft | 302 kts | 19° |
| 2026-05-07 17:23 | -26.20575 | 28.04937 | 8829 ft | 296 kts | 19° |
| 2026-05-07 17:23 | -26.18021 | 28.06083 | 8747 ft | 296 kts | 19° |
| 2026-05-07 17:23 | -26.16131 | 28.06930 | 8652 ft | 291 kts | 19° |
| 2026-05-07 17:24 | -26.14891 | 28.07489 | 8674 ft | 287 kts | 19° |
| 2026-05-07 17:24 | -26.13057 | 28.08346 | 8567 ft | 284 kts | 19° |
| 2026-05-07 17:24 | -26.11241 | 28.09207 | 8446 ft | 283 kts | 19° |
| 2026-05-07 17:24 | -26.08831 | 28.10353 | 8313 ft | 280 kts | 20° |
| 2026-05-07 17:25 | -26.07653 | 28.10915 | 8230 ft | 275 kts | 20° |
| 2026-05-07 17:25 | -26.05378 | 28.12003 | 8055 ft | 258 kts | 20° |
| 2026-05-07 17:25 | -26.04287 | 28.12531 | 7994 ft | 247 kts | 20° |
| 2026-05-07 17:25 | -26.02729 | 28.13290 | 8005 ft | 244 kts | 20° |
| 2026-05-07 17:26 | -26.01179 | 28.14046 | 8005 ft | 242 kts | 20° |
| 2026-05-07 17:26 | -25.99649 | 28.14794 | 8001 ft | 243 kts | 20° |
| 2026-05-07 17:26 | -25.98103 | 28.15552 | 8017 ft | 243 kts | 20° |
| 2026-05-07 17:26 | -25.96552 | 28.16313 | 8012 ft | 243 kts | 20° |
| 2026-05-07 17:27 | -25.95006 | 28.17069 | 8016 ft | 243 kts | 20° |
| 2026-05-07 17:27 | -25.93456 | 28.17827 | 8016 ft | 243 kts | 20° |
| 2026-05-07 17:27 | -25.92079 | 28.18908 | 8003 ft | 246 kts | 49° |
| 2026-05-07 17:27 | -25.91378 | 28.20603 | 8024 ft | 247 kts | 82° |
| 2026-05-07 17:28 | -25.91543 | 28.22469 | 8016 ft | 243 kts | 114° |
| 2026-05-07 17:28 | -25.92520 | 28.23932 | 8014 ft | 233 kts | 148° |
| 2026-05-07 17:28 | -25.93915 | 28.24793 | 8031 ft | 229 kts | 159° |
| 2026-05-07 17:28 | -25.95362 | 28.25551 | 8029 ft | 231 kts | 160° |
| 2026-05-07 17:29 | -25.96820 | 28.26305 | 7887 ft | 227 kts | 160° |
| 2026-05-07 17:29 | -25.98223 | 28.27033 | 7727 ft | 218 kts | 160° |
| 2026-05-07 17:29 | -25.99558 | 28.27726 | 7584 ft | 211 kts | 160° |
| 2026-05-07 17:29 | -26.00568 | 28.28250 | 7529 ft | 211 kts | 160° |
| 2026-05-07 17:30 | -26.01906 | 28.28835 | 7487 ft | 205 kts | 176° |
| 2026-05-07 17:30 | -26.03291 | 28.28756 | 7506 ft | 199 kts | 195° |
| 2026-05-07 17:30 | -26.04630 | 28.28453 | 7320 ft | 191 kts | 198° |
| 2026-05-07 17:30 | -26.05835 | 28.28105 | 7087 ft | 169 kts | 200° |
| 2026-05-07 17:31 | -26.06922 | 28.27770 | 6911 ft | 157 kts | 201° |
| 2026-05-07 17:31 | -26.07987 | 28.27439 | 6671 ft | 159 kts | 200° |
| 2026-05-07 17:31 | -26.09039 | 28.27113 | 6426 ft | 156 kts | 199° |
| 2026-05-07 17:31 | -26.10079 | 28.26789 | 6223 ft | 155 kts | 197° |
| 2026-05-07 17:32 | -26.11136 | 28.26488 | 6016 ft | 158 kts | 198° |
| 2026-05-07 17:32 | -26.12188 | 28.26156 | 5832 ft | 157 kts | 198° |
| 2026-05-07 17:32 | -26.13230 | 28.25826 | 5608 ft | 156 kts | 197° |
| 2026-05-07 17:32 | -26.14248 | 28.25503 | 5511 ft | 142 kts | 196° |
| 2026-05-07 17:33 | -26.15052 | 28.25255 | 5508 ft | 98 kts | 195° |
| 2026-05-07 17:33 | -26.15557 | 28.25098 | 5516 ft | 49 kts | 195° |
| 2026-05-07 17:33 | -26.15830 | 28.24937 | 5514 ft | 40 kts | 219° |
| 2026-05-07 17:33 | -26.15924 | 28.24805 | 5515 ft | 16 kts | 288° |
| 2026-05-07 17:34 | -26.15858 | 28.24793 | 5515 ft | 5 kts | 18° |
| 2026-05-07 17:34 | -26.15827 | 28.24803 | 5515 ft | 5 kts | 17° |
| 2026-05-07 17:34 | -26.15797 | 28.24814 | 5515 ft | 5 kts | 17° |
| 2026-05-07 17:34 | -26.15767 | 28.24825 | 5515 ft | 4 kts | 17° |
| 2026-05-07 17:35 | -26.15738 | 28.24835 | 5514 ft | 5 kts | 17° |
| 2026-05-07 17:35 | -26.15646 | 28.24863 | 5512 ft | 20 kts | 15° |
| 2026-05-07 17:35 | -26.15512 | 28.24905 | 5513 ft | 20 kts | 15° |
| 2026-05-07 17:35 | -26.15379 | 28.24946 | 5513 ft | 19 kts | 15° |
| 2026-05-07 17:36 | -26.15251 | 28.24984 | 5514 ft | 19 kts | 14° |
| 2026-05-07 17:36 | -26.15127 | 28.25021 | 5515 ft | 18 kts | 15° |
| 2026-05-07 17:36 | -26.15007 | 28.25059 | 5512 ft | 18 kts | 15° |
| 2026-05-07 17:36 | -26.14891 | 28.25094 | 5510 ft | 17 kts | 15° |
| 2026-05-07 17:37 | -26.14781 | 28.25128 | 5510 ft | 16 kts | 15° |
| 2026-05-07 17:37 | -26.14674 | 28.25158 | 5510 ft | 16 kts | 13° |
| 2026-05-07 17:37 | -26.14571 | 28.25190 | 5509 ft | 15 kts | 16° |
| 2026-05-07 17:37 | -26.14471 | 28.25200 | 5510 ft | 14 kts | 337° |
| 2026-05-07 17:38 | -26.14399 | 28.25128 | 5515 ft | 14 kts | 313° |
| 2026-05-07 17:38 | -26.14313 | 28.25035 | 5529 ft | 20 kts | 316° |
| 2026-05-07 17:38 | -26.14215 | 28.24929 | 5533 ft | 19 kts | 316° |
| 2026-05-07 17:38 | -26.14121 | 28.24828 | 5530 ft | 19 kts | 316° |
| 2026-05-07 17:39 | -26.14029 | 28.24729 | 5530 ft | 18 kts | 315° |
| 2026-05-07 17:39 | -26.13944 | 28.24634 | 5531 ft | 16 kts | 308° |
| 2026-05-07 17:39 | -26.13935 | 28.24516 | 5530 ft | 16 kts | 254° |
| 2026-05-07 17:39 | -26.13963 | 28.24399 | 5530 ft | 15 kts | 255° |
| 2026-05-07 17:40 | -26.13989 | 28.24285 | 5531 ft | 15 kts | 262° |
| 2026-05-07 17:40 | -26.13972 | 28.24175 | 5535 ft | 14 kts | 286° |
| 2026-05-07 17:40 | -26.13944 | 28.24062 | 5546 ft | 16 kts | 285° |
| 2026-05-07 17:40 | -26.13914 | 28.23942 | 5554 ft | 16 kts | 285° |
| 2026-05-07 17:41 | -26.13885 | 28.23826 | 5558 ft | 15 kts | 285° |
| 2026-05-07 17:41 | -26.13856 | 28.23715 | 5558 ft | 15 kts | 286° |
| 2026-05-07 17:41 | -26.13828 | 28.23609 | 5558 ft | 14 kts | 286° |
| 2026-05-07 17:41 | -26.13802 | 28.23505 | 5555 ft | 15 kts | 286° |
| 2026-05-07 17:42 | -26.13771 | 28.23380 | 5546 ft | 14 kts | 297° |
| 2026-05-07 17:42 | -26.13691 | 28.23341 | 5546 ft | 13 kts | 7° |
| 2026-05-07 17:42 | -26.13607 | 28.23352 | 5547 ft | 11 kts | 7° |
| 2026-05-07 17:42 | -26.13545 | 28.23351 | 5546 ft | 7 kts | 320° |
| 2026-05-07 17:43 | -26.13540 | 28.23303 | 5546 ft | 5 kts | 275° |
| 2026-05-07 17:43 | -26.13538 | 28.23278 | 5548 ft | 3 kts | 276° |
| 2026-05-07 17:43 | -26.13537 | 28.23269 | 5551 ft | 1 kts | 277° |
| 2026-05-07 17:43 | -26.13536 | 28.23267 | 5551 ft | 0 kts | 277° |